Terminal Aerodrome Forecast
Issued by NWS Twin Cities, MN

Home | Current Version | Previous Version | Text Only | Print | Product List | Glossary On
Versions: 1 2 3 4 5 6 7 8 9 10 11 12 13 14 15 16 17 18 19 20 21 22 23 24 25 26
000
FTUS43 KMPX 290536
TAFMSP
TAF
KMSP 290536Z 2906/3012 32008KT 2SM BR OVC004
      TEMPO 2906/2909 4SM BR OVC008
     FM290900 32014G23KT P6SM OVC012
     FM291400 32019G26KT P6SM OVC020
     FM292100 33014G20KT P6SM SCT025
     FM300300 35008KT P6SM SKC
     FM300900 04005KT P6SM SKC=

USA.gov is the U.S. government's official web portal to all federal, state and local government web resources and services.